DAUO/ELU METAR and TAF weather

Enter ICAO airport designator
Station Type Date Time Source
DAUO METAR 2019/10/21 23:00 UTC NOAA

DAUO 212300Z 08010KT CAVOK 25/16 Q1013


Station Type Date Time Source
DAUO Decoded METAR 2019/10/21 23:00 UTC NOAA

El Oued, Algeria (DAUO) 33-30N 006-07E 63M
Oct 21, 2019 - 07:00 PM EDT / 2019.10.21 2300 UTC
Wind: from the E (080 degrees) at 12 MPH (10 KT):0
Visibility: greater than 7 mile(s):0
Temperature: 77 F (25 C)
Dew Point: 60 F (16 C)
Relative Humidity: 57%
Pressure (altimeter): 29.91 in. Hg (1013 hPa)
ob: DAUO 212300Z 08010KT CAVOK 25/16 Q1013
cycle: 23

Station Type Date Time Source
DAUO TAF 2017/11/09 18:03 UTC NOAA

TAF DAUO 091700Z 0918/1009 28010KT 9999 SCT033 SCT100 PROB30
TEMPO 0918/0924 28015G25KT 5000 -TSRA FEW036CB

Example: see airport list